Terminal Aerodrome Forecast
Issued by NWS Boston, MA

Home | Current Version | Previous Version | Text Only | Print | Product List | Glossary On
Versions: 1 2 3 4 5 6 7 8 9 10 11 12 13 14 15 16 17 18 19 20 21
000
FTUS41 KBOX 190534
TAFBDL
TAF
KBDL 190534Z 1906/2012 19004KT P6SM BKN150
     FM190800 26004KT P6SM SCT250
     FM191100 32005KT P6SM FEW250
     FM191400 33010G18KT P6SM FEW050
     FM200100 35008KT P6SM SKC
     FM200600 36004KT P6SM SKC=

USA.gov is the U.S. government's official web portal to all federal, state and local government web resources and services.